Terminal Aerodrome Forecast
Issued by NWS

Home | Current Version | Previous Version | Text Only | Print | Product List | Glossary On
Versions: 1 2 3 4 5 6 7 8 9 10 11 12 13 14 15 16 17 18 19 20 21 22 23
367
FTAK31 PANC 090538
TAFAAQ
TAF
PAAQ 090538Z 0906/1006 02012KT P6SM SCT060 BKN120
     FM100300 35007KT P6SM FEW060 SCT120=

USA.gov is the U.S. government's official web portal to all federal, state and local government web resources and services.